createdAt,value
2023-04-13T00:00:47.963Z,11.40
2023-04-13T00:03:18.884Z,12.73
2023-04-13T00:05:48.574Z,13.57
2023-04-13T00:08:17.037Z,9.10
2023-04-13T00:10:45.976Z,9.70
2023-04-13T00:13:14.658Z,13.83
2023-04-13T00:15:44.112Z,10.13
2023-04-13T00:18:12.419Z,11.43
2023-04-13T00:20:43.406Z,10.50
2023-04-13T00:23:11.662Z,8.87
2023-04-13T00:25:39.657Z,8.90
2023-04-13T00:28:08.117Z,7.77
2023-04-13T00:30:36.175Z,11.73
2023-04-13T00:33:04.534Z,16.43
2023-04-13T00:35:32.780Z,8.87
2023-04-13T00:38:04.365Z,9.87
2023-04-13T00:40:32.575Z,11.87
2023-04-13T00:43:02.117Z,9.17
2023-04-13T00:45:30.701Z,8.70
2023-04-13T00:48:00.089Z,10.00
2023-04-13T00:50:28.367Z,9.00
2023-04-13T00:52:57.916Z,7.23
2023-04-13T00:55:27.636Z,10.23
2023-04-13T00:57:57.880Z,10.13
2023-04-13T01:00:26.942Z,8.80
2023-04-13T01:02:55.238Z,8.83
2023-04-13T01:05:25.462Z,8.97
2023-04-13T01:08:09.036Z,7.40
2023-04-13T01:10:44.564Z,12.10
2023-04-13T01:13:18.052Z,5.00
2023-04-13T01:15:48.603Z,6.73
2023-04-13T01:18:18.534Z,8.00
2023-04-13T01:20:48.938Z,8.30
2023-04-13T01:23:32.161Z,7.97
2023-04-13T01:26:07.064Z,7.97
2023-04-13T01:28:38.830Z,9.50
2023-04-13T01:31:11.624Z,6.63
2023-04-13T01:33:41.487Z,11.00
2023-04-13T01:36:11.902Z,8.10
2023-04-13T01:38:39.879Z,7.63
2023-04-13T01:41:08.687Z,7.10
2023-04-13T01:43:38.449Z,7.50
2023-04-13T01:46:11.309Z,11.50
2023-04-13T01:48:44.926Z,7.43
2023-04-13T01:51:16.641Z,11.70
2023-04-13T01:53:48.580Z,7.80
2023-04-13T01:56:19.180Z,11.70
2023-04-13T01:58:51.201Z,7.30
2023-04-13T02:01:19.304Z,8.97
2023-04-13T02:03:48.856Z,8.43
2023-04-13T02:06:17.079Z,4.13
2023-04-13T02:08:45.258Z,4.67
2023-04-13T02:11:14.092Z,4.20
2023-04-13T02:13:42.082Z,3.70
2023-04-13T02:16:11.670Z,9.07
2023-04-13T02:18:41.025Z,4.23
2023-04-13T02:21:09.731Z,3.43
2023-04-13T02:23:39.132Z,3.27
2023-04-13T02:26:09.171Z,5.00
2023-04-13T02:28:37.282Z,7.20
2023-04-13T02:31:05.825Z,3.17
2023-04-13T02:33:36.336Z,6.30
2023-04-13T02:36:05.396Z,4.43
2023-04-13T02:38:34.044Z,5.43
2023-04-13T02:41:02.509Z,7.20
2023-04-13T02:43:30.627Z,8.10
2023-04-13T02:45:59.567Z,3.97
2023-04-13T02:48:28.363Z,4.83
2023-04-13T02:50:57.802Z,5.30
2023-04-13T02:53:25.970Z,6.40
2023-04-13T02:55:55.362Z,3.43
2023-04-13T02:58:23.827Z,5.30
2023-04-13T03:00:51.892Z,5.43
2023-04-13T03:03:20.325Z,4.20
2023-04-13T03:05:50.653Z,4.60
2023-04-13T03:08:20.179Z,4.90
2023-04-13T03:10:48.174Z,5.30
2023-04-13T03:13:16.224Z,4.80
2023-04-13T03:15:44.263Z,4.10
2023-04-13T03:18:12.243Z,3.83
2023-04-13T03:20:40.216Z,8.30
2023-04-13T03:23:08.161Z,4.00
2023-04-13T03:25:37.662Z,3.13
2023-04-13T03:28:05.963Z,3.27
2023-04-13T03:30:33.918Z,4.70
2023-04-13T03:33:02.394Z,5.33
2023-04-13T03:35:30.655Z,6.70
2023-04-13T03:37:58.619Z,6.30
2023-04-13T03:40:27.536Z,3.60
2023-04-13T03:42:56.856Z,6.50
2023-04-13T03:45:24.828Z,3.00
2023-04-13T03:47:52.853Z,5.43
2023-04-13T03:50:21.195Z,4.17
2023-04-13T03:52:49.194Z,3.90
2023-04-13T03:55:18.197Z,3.43
2023-04-13T03:57:46.353Z,4.43
2023-04-13T04:00:17.347Z,4.10
2023-04-13T04:02:45.608Z,4.50
2023-04-13T04:05:13.906Z,5.93
2023-04-13T04:07:42.054Z,6.50
2023-04-13T04:10:10.651Z,2.73
2023-04-13T04:12:38.739Z,2.20
2023-04-13T04:15:07.874Z,5.03
2023-04-13T04:17:39.836Z,2.47
2023-04-13T04:20:10.529Z,3.80
2023-04-13T04:22:38.643Z,2.60
2023-04-13T04:25:07.443Z,4.23
2023-04-13T04:27:38.138Z,3.90
2023-04-13T04:30:07.471Z,2.97
2023-04-13T04:32:36.990Z,5.17
2023-04-13T04:35:05.801Z,3.40
2023-04-13T04:37:37.684Z,3.13
2023-04-13T04:40:09.428Z,3.30
2023-04-13T04:42:38.414Z,8.53
2023-04-13T04:45:07.087Z,5.90
2023-04-13T04:47:42.045Z,5.37
2023-04-13T04:50:11.230Z,5.97
2023-04-13T04:52:39.432Z,7.43
2023-04-13T04:55:08.592Z,5.97
2023-04-13T04:57:37.294Z,7.03
2023-04-13T05:00:09.284Z,3.40
2023-04-13T05:02:38.741Z,3.40
2023-04-13T05:05:07.388Z,3.20
2023-04-13T05:07:35.387Z,4.73
2023-04-13T05:10:04.335Z,4.13
2023-04-13T05:12:32.348Z,9.33
2023-04-13T05:15:00.317Z,3.73
2023-04-13T05:17:28.656Z,5.20
2023-04-13T05:19:58.033Z,4.33
2023-04-13T05:22:26.420Z,4.23
2023-04-13T05:24:54.522Z,7.67
2023-04-13T05:27:22.544Z,4.40
2023-04-13T05:29:50.587Z,3.20
2023-04-13T05:32:18.535Z,12.03
2023-04-13T05:34:46.493Z,4.50
2023-04-13T05:37:16.011Z,4.17
2023-04-13T05:39:45.120Z,3.83
2023-04-13T05:42:13.197Z,3.50
2023-04-13T05:44:41.167Z,2.43
2023-04-13T05:47:09.213Z,2.27
2023-04-13T05:49:37.492Z,5.53
2023-04-13T05:52:07.506Z,4.47
2023-04-13T05:54:37.312Z,4.30
2023-04-13T05:57:05.480Z,2.17
2023-04-13T05:59:33.488Z,4.20
2023-04-13T06:02:03.117Z,4.63
2023-04-13T06:04:32.184Z,2.37
2023-04-13T06:07:00.796Z,3.70
2023-04-13T06:09:29.072Z,1.93
2023-04-13T06:11:58.494Z,3.60
2023-04-13T06:14:26.491Z,6.60
2023-04-13T06:16:54.534Z,2.70
2023-04-13T06:19:22.453Z,2.37
2023-04-13T06:21:50.425Z,2.17
2023-04-13T06:24:18.561Z,3.90
2023-04-13T06:26:46.770Z,2.00
2023-04-13T06:29:16.134Z,1.60
2023-04-13T06:31:44.087Z,2.47
2023-04-13T06:34:12.049Z,2.73
2023-04-13T06:36:40.558Z,1.87
2023-04-13T06:39:09.307Z,3.47
2023-04-13T06:41:37.827Z,1.90
2023-04-13T06:44:06.100Z,4.10
2023-04-13T06:46:35.488Z,2.43
2023-04-13T06:49:03.546Z,2.37
2023-04-13T06:51:31.559Z,2.40
2023-04-13T06:53:59.516Z,1.77
2023-04-13T06:56:27.592Z,2.57
2023-04-13T06:59:00.794Z,1.87
2023-04-13T07:01:30.302Z,2.63
2023-04-13T07:04:00.028Z,1.73
2023-04-13T07:06:29.284Z,2.23
2023-04-13T07:08:57.514Z,3.23
2023-04-13T07:11:26.577Z,3.10
2023-04-13T07:13:54.579Z,15.40
2023-04-13T07:16:22.588Z,3.40
2023-04-13T07:18:50.590Z,2.47
2023-04-13T07:21:19.889Z,4.50
2023-04-13T07:23:47.865Z,1.80
2023-04-13T07:26:16.691Z,1.93
2023-04-13T07:28:44.671Z,2.50
2023-04-13T07:31:13.500Z,2.70
2023-04-13T07:33:41.507Z,3.50
2023-04-13T07:36:11.423Z,2.10
2023-04-13T07:38:41.049Z,1.40
2023-04-13T07:41:09.017Z,2.67
2023-04-13T07:43:37.326Z,3.03
2023-04-13T07:46:11.709Z,3.30
2023-04-13T07:48:39.795Z,2.33
2023-04-13T07:51:08.541Z,5.03
2023-04-13T07:53:36.913Z,2.20
2023-04-13T07:56:07.002Z,2.67
2023-04-13T07:58:34.940Z,3.17
2023-04-13T08:01:03.341Z,5.30
2023-04-13T08:03:32.741Z,4.70
2023-04-13T08:06:01.793Z,3.87
2023-04-13T08:08:30.072Z,4.23
2023-04-13T08:10:58.025Z,3.17
2023-04-13T08:13:28.767Z,2.10
2023-04-13T08:15:57.908Z,3.10
2023-04-13T08:18:26.776Z,3.10
2023-04-13T08:20:55.728Z,2.33
2023-04-13T08:23:24.027Z,4.17
2023-04-13T08:25:51.972Z,2.40
2023-04-13T08:28:20.226Z,1.90
2023-04-13T08:30:49.544Z,2.17
2023-04-13T08:33:17.496Z,1.80
2023-04-13T08:35:45.546Z,1.80
2023-04-13T08:38:14.082Z,2.73
2023-04-13T08:40:42.167Z,6.53
2023-04-13T08:43:10.135Z,3.60
2023-04-13T08:45:41.838Z,5.67
2023-04-13T08:48:12.841Z,1.60
2023-04-13T08:50:40.980Z,2.83
2023-04-13T08:53:09.977Z,1.97
2023-04-13T08:55:45.976Z,2.43
2023-04-13T08:58:14.845Z,3.73
2023-04-13T09:00:44.108Z,3.53
2023-04-13T09:03:15.842Z,2.10
2023-04-13T09:05:44.647Z,2.47
2023-04-13T09:08:14.129Z,1.80
2023-04-13T09:10:42.264Z,2.23
2023-04-13T09:13:11.014Z,2.33
2023-04-13T09:15:40.994Z,3.37
2023-04-13T09:18:10.204Z,3.67
2023-04-13T09:20:40.600Z,2.57
2023-04-13T09:23:15.965Z,2.60
2023-04-13T09:25:45.360Z,2.43
2023-04-13T09:28:21.257Z,7.33
2023-04-13T09:30:49.569Z,5.63
2023-04-13T09:33:18.149Z,4.73
2023-04-13T09:35:47.488Z,2.77
2023-04-13T09:38:16.941Z,2.40
2023-04-13T09:40:54.134Z,1.53
2023-04-13T09:43:22.156Z,2.60
2023-04-13T09:45:50.778Z,3.40
2023-04-13T09:48:20.423Z,3.73
2023-04-13T09:50:59.315Z,4.03
2023-04-13T09:53:28.768Z,3.37
2023-04-13T09:56:01.030Z,5.00
2023-04-13T09:58:30.034Z,2.23
2023-04-13T10:00:59.192Z,1.93
2023-04-13T10:03:27.991Z,2.97
2023-04-13T10:06:00.972Z,2.90
2023-04-13T10:11:02.468Z,3.83
2023-04-13T10:13:35.773Z,2.80
2023-04-13T10:16:33.449Z,4.60
2023-04-13T10:19:04.765Z,3.90
2023-04-13T10:21:39.340Z,3.87
2023-04-13T10:24:12.224Z,2.67
2023-04-13T10:26:41.985Z,2.87
2023-04-13T10:29:11.587Z,2.50
2023-04-13T10:31:40.014Z,4.07
2023-04-13T10:34:08.526Z,6.00
2023-04-13T10:36:39.590Z,2.20
2023-04-13T10:39:08.270Z,2.70
2023-04-13T10:41:37.508Z,2.33
2023-04-13T10:44:07.607Z,3.27
2023-04-13T10:46:36.576Z,3.70
2023-04-13T10:49:06.833Z,3.47
2023-04-13T10:51:44.584Z,4.83
2023-04-13T10:54:15.148Z,2.63
2023-04-13T10:56:43.086Z,2.63
2023-04-13T10:59:11.113Z,1.80
2023-04-13T11:01:41.156Z,2.10
2023-04-13T11:04:14.068Z,2.97
2023-04-13T11:06:46.354Z,6.93
2023-04-13T11:09:17.158Z,2.13
2023-04-13T11:11:52.157Z,3.37
2023-04-13T11:14:22.477Z,3.27
2023-04-13T11:16:50.758Z,2.70
2023-04-13T11:19:18.968Z,2.67
2023-04-13T11:21:55.544Z,5.17
2023-04-13T11:24:34.079Z,2.43
2023-04-13T11:27:02.115Z,6.80
2023-04-13T11:29:30.108Z,4.07
2023-04-13T11:31:58.279Z,2.60
2023-04-13T11:34:28.940Z,2.57
2023-04-13T11:37:05.109Z,2.00
2023-04-13T11:39:36.256Z,3.77
2023-04-13T11:42:08.021Z,2.80
2023-04-13T11:44:37.000Z,4.03
2023-04-13T11:47:05.912Z,2.60
2023-04-13T11:49:34.149Z,6.43
2023-04-13T11:52:04.185Z,2.70
2023-04-13T11:54:32.645Z,4.17
2023-04-13T11:57:01.290Z,3.40
2023-04-13T11:59:29.343Z,2.50
2023-04-13T12:02:02.663Z,4.30
2023-04-13T12:04:39.051Z,5.70
2023-04-13T12:07:14.065Z,2.80
2023-04-13T12:15:09.862Z,7.73
2023-04-13T12:17:49.565Z,2.60
2023-04-13T12:20:20.789Z,3.80
2023-04-13T12:22:57.807Z,2.40
2023-04-13T12:25:35.814Z,3.83
2023-04-13T12:28:04.695Z,4.03
2023-04-13T12:30:34.252Z,4.10
2023-04-13T12:33:02.367Z,2.67
2023-04-13T12:35:30.490Z,3.97
2023-04-13T12:38:00.315Z,2.67
2023-04-13T12:40:29.376Z,2.97
2023-04-13T12:42:57.551Z,3.30
2023-04-13T12:45:25.564Z,10.00
2023-04-13T12:47:53.547Z,2.60
2023-04-13T12:50:22.084Z,7.90
2023-04-13T12:52:50.201Z,3.20
2023-04-13T12:55:19.916Z,5.30
2023-04-13T12:57:47.860Z,5.20
2023-04-13T13:00:17.328Z,2.27
2023-04-13T13:02:45.443Z,2.03
2023-04-13T13:05:13.687Z,3.20
2023-04-13T13:07:41.756Z,7.10
2023-04-13T13:10:25.958Z,3.50
2023-04-13T13:13:00.520Z,10.83
2023-04-13T13:15:28.510Z,2.23
2023-04-13T13:17:56.619Z,3.80
2023-04-13T13:20:24.641Z,2.60
2023-04-13T13:22:52.989Z,6.43
2023-04-13T13:25:21.050Z,4.00
2023-04-13T13:30:21.275Z,2.70
2023-04-13T13:32:49.365Z,4.77
2023-04-13T13:35:17.423Z,3.00
2023-04-13T13:37:45.702Z,2.70
2023-04-13T13:40:14.233Z,4.03
2023-04-13T13:45:13.157Z,3.33
2023-04-13T13:47:42.507Z,3.73
2023-04-13T13:50:11.781Z,2.77
2023-04-13T13:52:48.432Z,5.13
2023-04-13T13:55:23.733Z,3.30
2023-04-13T13:57:51.717Z,3.37
2023-04-13T14:00:21.048Z,3.50
2023-04-13T14:02:50.499Z,3.03
2023-04-13T14:05:18.634Z,2.33
2023-04-13T14:07:46.815Z,3.20
2023-04-13T14:10:15.190Z,3.67
2023-04-13T14:12:50.237Z,3.07
2023-04-13T14:15:19.274Z,5.53
2023-04-13T14:17:55.833Z,2.57
2023-04-13T14:20:38.432Z,3.40
2023-04-13T14:23:06.683Z,5.07
2023-04-13T14:25:34.670Z,9.70
2023-04-13T14:28:02.981Z,4.27
2023-04-13T14:30:31.287Z,7.20
2023-04-13T14:32:59.267Z,3.60
2023-04-13T14:35:27.575Z,3.03
2023-04-13T14:37:57.546Z,7.20
2023-04-13T14:40:26.565Z,5.60
2023-04-13T14:42:55.027Z,4.27
2023-04-13T14:45:23.296Z,4.07
2023-04-13T14:47:53.543Z,7.90
2023-04-13T14:50:22.313Z,3.50
2023-04-13T14:52:50.523Z,5.83
2023-04-13T14:55:20.421Z,2.90
2023-04-13T14:57:48.355Z,2.80
2023-04-13T15:00:21.407Z,2.80
2023-04-13T15:02:50.314Z,4.60
2023-04-13T15:05:18.928Z,2.90
2023-04-13T15:07:47.605Z,3.10
2023-04-13T15:10:16.631Z,3.67
2023-04-13T15:12:46.508Z,4.47
2023-04-13T15:15:14.642Z,3.23
2023-04-13T15:17:42.645Z,4.50
2023-04-13T15:20:11.967Z,3.00
2023-04-13T15:22:40.781Z,3.23
2023-04-13T15:25:09.368Z,4.33
2023-04-13T15:27:37.393Z,4.33
2023-04-13T15:30:09.956Z,5.80
2023-04-13T15:32:38.081Z,4.50
2023-04-13T15:35:06.555Z,3.80
2023-04-13T15:37:34.724Z,3.60
2023-04-13T15:40:04.776Z,2.17
2023-04-13T15:42:32.984Z,4.10
2023-04-13T15:45:01.136Z,5.33
2023-04-13T15:47:31.005Z,3.60
2023-04-13T15:49:58.973Z,4.83
2023-04-13T15:52:26.951Z,5.43
2023-04-13T15:54:55.774Z,3.90
2023-04-13T15:57:23.705Z,3.10
2023-04-13T15:59:51.694Z,4.13
2023-04-13T16:02:19.715Z,5.83
2023-04-13T16:04:49.155Z,3.93
2023-04-13T16:07:17.716Z,3.87
2023-04-13T16:09:45.719Z,7.90
2023-04-13T16:12:13.694Z,4.43
2023-04-13T16:14:45.028Z,4.00
2023-04-13T16:17:14.715Z,10.60
2023-04-13T16:19:47.355Z,7.63
2023-04-13T16:22:17.853Z,11.13
2023-04-13T16:24:45.792Z,4.40
2023-04-13T16:27:13.750Z,5.30
2023-04-13T16:29:43.390Z,4.63
2023-04-13T16:32:11.596Z,2.83
2023-04-13T16:34:39.614Z,4.90
2023-04-13T16:37:07.736Z,3.43
2023-04-13T16:39:37.951Z,3.87
2023-04-13T16:42:06.194Z,6.80
2023-04-13T16:44:34.094Z,4.67
2023-04-13T16:47:02.179Z,8.80
2023-04-13T16:49:30.166Z,7.47
2023-04-13T16:51:58.129Z,5.30
2023-04-13T16:54:26.583Z,6.03
2023-04-13T16:56:55.934Z,5.20
2023-04-13T16:59:24.028Z,9.87
2023-04-13T17:01:51.992Z,8.10
2023-04-13T17:04:20.178Z,3.50
2023-04-13T17:06:48.308Z,3.07
2023-04-13T17:09:17.085Z,7.67
2023-04-13T17:11:45.173Z,5.30
2023-04-13T17:14:14.548Z,2.63
2023-04-13T17:16:42.545Z,4.47
2023-04-13T17:19:10.590Z,4.63
2023-04-13T17:21:39.268Z,5.33
2023-04-13T17:24:08.872Z,2.93
2023-04-13T17:26:36.909Z,7.80
2023-04-13T17:29:05.277Z,8.00
2023-04-13T17:31:34.860Z,2.97
2023-04-13T17:34:03.096Z,4.70
2023-04-13T17:36:31.286Z,3.90
2023-04-13T17:38:59.979Z,4.70
2023-04-13T17:41:29.259Z,5.03
2023-04-13T17:43:57.375Z,4.10
2023-04-13T17:46:25.422Z,6.43
2023-04-13T17:48:54.873Z,7.20
2023-04-13T17:51:22.870Z,8.00
2023-04-13T17:53:51.149Z,3.70
2023-04-13T17:56:19.996Z,5.30
2023-04-13T17:58:48.429Z,4.77
2023-04-13T18:01:16.932Z,7.17
2023-04-13T18:06:14.616Z,8.80
2023-04-13T18:08:42.854Z,4.03
2023-04-13T18:11:11.940Z,6.90
2023-04-13T18:13:39.959Z,20.03
2023-04-13T18:16:11.142Z,39.30
2023-04-13T18:18:40.684Z,27.50
2023-04-13T18:21:08.795Z,15.67
2023-04-13T18:23:38.190Z,20.67
2023-04-13T18:26:06.223Z,10.70
2023-04-13T18:28:35.913Z,9.70
2023-04-13T18:31:04.241Z,5.50
2023-04-13T18:33:32.241Z,6.47
2023-04-13T18:36:01.127Z,5.53
2023-04-13T18:38:29.164Z,5.00
2023-04-13T18:40:59.253Z,6.27
2023-04-13T18:43:27.374Z,7.17
2023-04-13T18:45:55.532Z,3.90
2023-04-13T18:48:23.835Z,5.80
2023-04-13T18:50:51.901Z,5.90
2023-04-13T18:53:19.840Z,3.60
2023-04-13T18:55:50.128Z,5.40
2023-04-13T18:58:20.650Z,5.03
2023-04-13T19:00:49.375Z,5.90
2023-04-13T19:03:17.586Z,12.03
2023-04-13T19:05:46.069Z,17.03
2023-04-13T19:08:14.112Z,6.37
2023-04-13T19:10:42.672Z,4.57
2023-04-13T19:13:10.807Z,5.17
2023-04-13T19:15:40.211Z,7.03
2023-04-13T19:18:11.112Z,11.23
2023-04-13T19:20:39.095Z,14.53
2023-04-13T19:23:07.944Z,7.60
2023-04-13T19:25:35.928Z,10.13
2023-04-13T19:28:04.007Z,9.30
2023-04-13T19:30:32.114Z,7.50
2023-04-13T19:33:01.516Z,14.90
2023-04-13T19:35:29.825Z,6.47
2023-04-13T19:37:57.900Z,8.03
2023-04-13T19:40:27.236Z,7.47
2023-04-13T19:42:55.499Z,5.73
2023-04-13T19:45:23.591Z,6.60
2023-04-13T19:47:52.009Z,6.17
2023-04-13T19:50:22.390Z,12.10
2023-04-13T19:52:52.152Z,7.90
2023-04-13T19:55:20.566Z,7.70
2023-04-13T19:57:48.487Z,6.33
2023-04-13T20:00:20.453Z,7.70
2023-04-13T20:02:50.772Z,5.07
2023-04-13T20:05:21.273Z,8.03
2023-04-13T20:07:49.621Z,13.27
2023-04-13T20:10:17.868Z,6.57
2023-04-13T20:12:45.965Z,6.37
2023-04-13T20:15:13.912Z,6.83
2023-04-13T20:17:41.936Z,5.93
2023-04-13T20:20:11.075Z,6.57
2023-04-13T20:22:40.456Z,7.30
2023-04-13T20:25:09.956Z,8.00
2023-04-13T20:27:42.030Z,9.27
2023-04-13T20:30:11.671Z,10.70
2023-04-13T20:32:39.750Z,7.80
2023-04-13T20:35:09.065Z,6.60
2023-04-13T20:37:37.203Z,8.77
2023-04-13T20:40:10.579Z,6.30
2023-04-13T20:42:41.654Z,6.70
2023-04-13T20:45:10.952Z,6.40
2023-04-13T20:47:42.352Z,8.97
2023-04-13T20:50:11.878Z,13.20
2023-04-13T20:52:41.967Z,14.57
2023-04-13T20:55:12.122Z,14.80
2023-04-13T20:57:42.036Z,25.97
2023-04-13T21:00:15.426Z,20.20
2023-04-13T21:02:45.079Z,18.37
2023-04-13T21:05:13.459Z,19.20
2023-04-13T21:07:41.924Z,17.40
2023-04-13T21:10:12.270Z,18.97
2023-04-13T21:12:40.206Z,13.03
2023-04-13T21:15:09.927Z,11.87
2023-04-13T21:17:38.049Z,15.23
2023-04-13T21:20:08.852Z,11.57
2023-04-13T21:22:36.896Z,6.73
2023-04-13T21:25:05.811Z,9.83
2023-04-13T21:27:35.117Z,8.47
2023-04-13T21:30:03.254Z,11.83
2023-04-13T21:32:31.407Z,13.80
2023-04-13T21:35:00.361Z,12.90
2023-04-13T21:37:29.264Z,8.07
2023-04-13T21:39:57.776Z,6.70
2023-04-13T21:42:25.820Z,9.13
2023-04-13T21:44:56.261Z,9.40
2023-04-13T21:47:24.537Z,7.77
2023-04-13T21:49:52.540Z,11.00
2023-04-13T21:52:20.553Z,7.67
2023-04-13T21:54:50.390Z,10.33
2023-04-13T21:57:19.480Z,8.50
2023-04-13T21:59:47.428Z,8.40
2023-04-13T22:02:16.957Z,6.50
2023-04-13T22:04:44.915Z,8.87
2023-04-13T22:07:12.969Z,8.70
2023-04-13T22:09:41.146Z,8.77
2023-04-13T22:12:10.704Z,8.67
2023-04-13T22:14:38.690Z,9.80
2023-04-13T22:17:06.617Z,9.83
2023-04-13T22:19:35.989Z,7.50
2023-04-13T22:22:03.969Z,8.80
2023-04-13T22:24:32.006Z,9.07
2023-04-13T22:27:03.080Z,4.70
2023-04-13T22:29:31.433Z,7.23
2023-04-13T22:31:59.521Z,6.60
2023-04-13T22:34:28.358Z,6.87
2023-04-13T22:36:57.687Z,12.33
2023-04-13T22:39:25.646Z,5.43
2023-04-13T22:41:53.569Z,6.97
2023-04-13T22:44:21.584Z,7.53
2023-04-13T22:46:49.611Z,6.40
2023-04-13T22:49:17.561Z,6.90
2023-04-13T22:51:45.490Z,7.87
2023-04-13T22:54:15.042Z,5.57
2023-04-13T22:56:42.972Z,8.40
2023-04-13T22:59:10.979Z,8.13
2023-04-13T23:01:38.931Z,8.97
2023-04-13T23:04:06.999Z,8.90
2023-04-13T23:06:36.379Z,9.20
2023-04-13T23:09:04.678Z,7.63
2023-04-13T23:11:34.019Z,9.40
2023-04-13T23:14:02.157Z,5.70
2023-04-13T23:16:30.592Z,5.87
2023-04-13T23:18:58.916Z,6.93
2023-04-13T23:21:27.576Z,7.33
2023-04-13T23:23:56.109Z,9.40
2023-04-13T23:26:24.306Z,11.50
2023-04-13T23:28:53.664Z,5.70
2023-04-13T23:31:21.713Z,7.10
2023-04-13T23:33:49.687Z,5.43
2023-04-13T23:36:18.702Z,5.30
2023-04-13T23:38:46.808Z,6.70
2023-04-13T23:41:14.796Z,7.03
2023-04-13T23:43:42.788Z,5.73
2023-04-13T23:46:12.977Z,14.03
2023-04-13T23:48:41.155Z,7.20
2023-04-13T23:51:09.141Z,8.43
2023-04-13T23:53:37.408Z,6.33
2023-04-13T23:56:06.432Z,7.50
2023-04-13T23:58:34.376Z,9.10
